createdAt,value
2018-03-03T00:02:22.012Z,60.07
2018-03-03T00:04:49.543Z,62.23
2018-03-03T00:07:17.110Z,59.77
2018-03-03T00:09:44.645Z,60.67
2018-03-03T00:12:12.296Z,60.77
2018-03-03T00:14:39.835Z,60.30
2018-03-03T00:17:07.403Z,56.53
2018-03-03T00:19:34.965Z,58.93
2018-03-03T00:22:03.767Z,61.07
2018-03-03T00:24:31.333Z,61.77
2018-03-03T00:26:59.128Z,61.10
2018-03-03T00:29:26.658Z,62.83
2018-03-03T00:31:54.873Z,58.90
2018-03-03T00:34:22.416Z,59.67
2018-03-03T00:36:49.951Z,57.00
2018-03-03T00:39:17.512Z,59.20
2018-03-03T00:41:45.100Z,59.63
2018-03-03T00:44:12.671Z,60.47
2018-03-03T00:46:40.209Z,61.23
2018-03-03T00:49:07.812Z,61.53
2018-03-03T00:51:36.099Z,63.17
2018-03-03T00:54:03.681Z,60.40
2018-03-03T00:56:31.228Z,61.93
2018-03-03T00:58:58.790Z,63.40
2018-03-03T01:01:26.315Z,60.47
2018-03-03T01:03:53.888Z,61.80
2018-03-03T01:06:21.420Z,62.60
2018-03-03T01:08:48.992Z,61.53
2018-03-03T01:11:16.562Z,61.60
2018-03-03T01:13:44.111Z,61.67
2018-03-03T01:16:11.742Z,64.10
2018-03-03T01:18:39.264Z,61.23
2018-03-03T01:21:06.865Z,63.60
2018-03-03T01:23:34.423Z,63.73
2018-03-03T01:26:01.953Z,59.23
2018-03-03T01:28:29.494Z,60.53
2018-03-03T01:30:57.391Z,61.93
2018-03-03T01:33:25.054Z,60.73
2018-03-03T01:35:52.645Z,60.33
2018-03-03T01:38:20.164Z,60.90
2018-03-03T01:40:48.498Z,62.70
2018-03-03T01:43:16.047Z,60.33
2018-03-03T01:45:43.615Z,60.27
2018-03-03T01:48:11.319Z,64.20
2018-03-03T01:50:39.028Z,59.60
2018-03-03T01:53:06.608Z,63.00
2018-03-03T01:55:34.132Z,58.13
2018-03-03T01:58:01.777Z,62.03
2018-03-03T02:00:29.339Z,61.33
2018-03-03T02:02:56.887Z,60.87
2018-03-03T02:05:24.481Z,62.57
2018-03-03T02:07:52.007Z,62.23
2018-03-03T02:10:19.580Z,63.50
2018-03-03T02:12:47.199Z,59.10
2018-03-03T02:15:15.587Z,62.03
2018-03-03T02:17:43.863Z,60.93
2018-03-03T02:20:11.406Z,61.67
2018-03-03T02:22:39.708Z,62.30
2018-03-03T02:25:07.482Z,58.80
2018-03-03T02:27:34.999Z,58.97
2018-03-03T02:30:03.388Z,56.70
2018-03-03T02:32:31.710Z,58.93
2018-03-03T02:34:59.240Z,58.93
2018-03-03T02:37:27.555Z,57.80
2018-03-03T02:39:55.414Z,59.57
2018-03-03T02:42:22.944Z,60.90
2018-03-03T02:44:50.483Z,58.50
2018-03-03T02:47:18.054Z,57.93
2018-03-03T02:49:46.372Z,60.40
2018-03-03T02:52:13.904Z,60.20
2018-03-03T02:54:41.463Z,60.77
2018-03-03T02:57:09.943Z,59.23
2018-03-03T02:59:37.743Z,59.97
2018-03-03T03:02:05.299Z,61.83
2018-03-03T03:04:32.859Z,58.73
2018-03-03T03:07:00.432Z,58.97
2018-03-03T03:09:27.959Z,59.33
2018-03-03T03:11:55.558Z,56.83
2018-03-03T03:14:23.874Z,59.67
2018-03-03T03:16:51.397Z,60.03
2018-03-03T03:19:18.982Z,62.60
2018-03-03T03:21:47.329Z,60.10
2018-03-03T03:24:14.892Z,58.63
2018-03-03T03:26:42.455Z,58.70
2018-03-03T03:29:09.990Z,58.37
2018-03-03T03:31:37.554Z,59.87
2018-03-03T03:34:05.114Z,60.27
2018-03-03T03:36:32.690Z,60.93
2018-03-03T03:39:00.249Z,60.43
2018-03-03T03:41:27.798Z,62.20
2018-03-03T03:43:56.128Z,63.40
2018-03-03T03:46:23.693Z,60.53
2018-03-03T03:48:51.241Z,57.40
2018-03-03T03:51:19.639Z,60.63
2018-03-03T03:53:47.956Z,61.50
2018-03-03T03:56:15.568Z,63.03
2018-03-03T03:58:43.134Z,60.47
2018-03-03T04:01:10.704Z,59.50
2018-03-03T04:03:39.132Z,61.27
2018-03-03T04:06:06.728Z,56.87
2018-03-03T04:08:34.253Z,60.97
2018-03-03T04:11:01.809Z,59.10
2018-03-03T04:13:29.376Z,58.80
2018-03-03T04:15:57.702Z,57.33
2018-03-03T04:18:25.277Z,58.63
2018-03-03T04:20:52.816Z,61.00
2018-03-03T04:23:20.380Z,56.97
2018-03-03T04:25:48.839Z,57.43
2018-03-03T04:28:16.402Z,57.27
2018-03-03T04:30:44.745Z,57.03
2018-03-03T04:33:12.645Z,56.10
2018-03-03T04:35:40.249Z,56.70
2018-03-03T04:38:07.827Z,56.27
2018-03-03T04:40:35.385Z,56.97
2018-03-03T04:43:02.977Z,56.33
2018-03-03T04:45:31.349Z,56.63
2018-03-03T04:47:58.945Z,53.37
2018-03-03T04:50:27.667Z,56.87
2018-03-03T04:52:55.237Z,53.67
2018-03-03T04:55:23.086Z,53.67
2018-03-03T04:57:50.650Z,57.03
2018-03-03T05:00:33.165Z,56.20
2018-03-03T05:03:21.590Z,56.73
2018-03-03T05:05:52.598Z,54.40
2018-03-03T05:08:25.893Z,54.57
2018-03-03T05:10:54.080Z,53.80
2018-03-03T05:13:27.224Z,54.63
2018-03-03T05:16:00.338Z,54.33
2018-03-03T05:18:33.620Z,52.60
2018-03-03T05:21:06.888Z,51.77
2018-03-03T05:23:39.992Z,51.90
2018-03-03T05:26:13.121Z,54.57
2018-03-03T05:28:46.419Z,51.93
2018-03-03T05:34:19.745Z,52.87
2018-03-03T05:36:55.741Z,51.83
2018-03-03T05:39:40.977Z,52.07
2018-03-03T05:42:14.286Z,53.83
2018-03-03T05:44:47.544Z,52.53
2018-03-03T05:47:34.216Z,52.93
2018-03-03T05:50:07.455Z,51.60
2018-03-03T05:52:49.911Z,53.47
2018-03-03T05:55:34.243Z,50.17
2018-03-03T05:58:07.496Z,52.07
2018-03-03T06:03:55.505Z,54.00
2018-03-03T06:06:41.835Z,53.53
2018-03-03T06:09:11.444Z,52.70
2018-03-03T06:11:39.033Z,51.93
2018-03-03T06:14:06.596Z,50.87
2018-03-03T06:16:34.929Z,50.20
2018-03-03T06:19:02.489Z,50.53
2018-03-03T06:21:30.101Z,50.00
2018-03-03T06:23:57.714Z,54.17
2018-03-03T06:26:25.356Z,52.73
2018-03-03T06:28:52.910Z,51.07
2018-03-03T06:31:20.473Z,49.80
2018-03-03T06:33:48.028Z,53.63
2018-03-03T06:36:15.590Z,50.00
2018-03-03T06:38:43.189Z,51.30
2018-03-03T06:41:10.725Z,50.50
2018-03-03T06:43:38.292Z,51.47
2018-03-03T06:46:05.834Z,53.60
2018-03-03T06:48:33.408Z,53.40
2018-03-03T06:51:01.034Z,51.27
2018-03-03T06:53:28.565Z,51.93
2018-03-03T06:55:56.141Z,51.17
2018-03-03T06:58:24.478Z,52.10
2018-03-03T07:00:52.065Z,49.77
2018-03-03T07:03:19.650Z,50.03
2018-03-03T07:05:47.224Z,52.37
2018-03-03T07:08:14.761Z,51.80
2018-03-03T07:10:42.368Z,51.23
2018-03-03T07:13:09.913Z,52.07
2018-03-03T07:15:37.506Z,51.37
2018-03-03T07:18:05.029Z,51.10
2018-03-03T07:20:32.589Z,52.27
2018-03-03T07:23:00.248Z,49.70
2018-03-03T07:25:27.790Z,50.37
2018-03-03T07:27:55.348Z,53.37
2018-03-03T07:30:22.928Z,50.57
2018-03-03T07:32:50.488Z,49.90
2018-03-03T07:35:18.100Z,50.50
2018-03-03T07:37:45.624Z,52.43
2018-03-03T07:40:13.416Z,50.43
2018-03-03T07:42:40.994Z,49.90
2018-03-03T07:45:08.625Z,51.20
2018-03-03T07:47:36.459Z,50.63
2018-03-03T07:50:04.002Z,51.23
2018-03-03T07:52:31.608Z,51.40
2018-03-03T07:54:59.152Z,48.50
2018-03-03T07:57:26.750Z,49.33
2018-03-03T07:59:54.335Z,48.93
2018-03-03T08:02:21.953Z,50.53
2018-03-03T08:04:49.517Z,48.00
2018-03-03T08:07:17.093Z,48.37
2018-03-03T08:09:44.676Z,50.10
2018-03-03T08:12:12.259Z,48.93
2018-03-03T08:14:39.931Z,48.80
2018-03-03T08:17:07.662Z,47.83
2018-03-03T08:19:35.210Z,47.87
2018-03-03T08:22:03.522Z,48.83
2018-03-03T08:24:31.162Z,48.60
2018-03-03T08:26:58.711Z,46.57
2018-03-03T08:29:26.279Z,46.37
2018-03-03T08:31:53.862Z,46.13
2018-03-03T08:34:21.548Z,45.67
2018-03-03T08:36:49.086Z,44.70
2018-03-03T08:39:16.716Z,46.33
2018-03-03T08:41:45.114Z,44.33
2018-03-03T08:44:12.790Z,43.10
2018-03-03T08:46:40.881Z,42.97
2018-03-03T08:49:08.431Z,43.07
2018-03-03T08:51:36.048Z,42.57
2018-03-03T08:54:03.582Z,41.27
2018-03-03T08:56:31.146Z,40.57
2018-03-03T08:58:58.738Z,35.93
2018-03-03T09:01:26.282Z,34.27
2018-03-03T09:03:54.874Z,34.47
2018-03-03T09:06:22.772Z,33.67
2018-03-03T09:08:50.321Z,31.10
2018-03-03T09:11:17.882Z,32.10
2018-03-03T09:13:45.468Z,34.20
2018-03-03T09:16:13.137Z,36.70
2018-03-03T09:18:40.705Z,36.47
2018-03-03T09:21:08.279Z,37.87
2018-03-03T09:23:35.962Z,38.77
2018-03-03T09:26:04.308Z,36.10
2018-03-03T09:28:31.932Z,32.60
2018-03-03T09:30:59.646Z,32.40
2018-03-03T09:33:27.216Z,33.20
2018-03-03T09:35:55.538Z,31.23
2018-03-03T09:38:23.173Z,31.23
2018-03-03T09:40:50.801Z,32.47
2018-03-03T09:43:18.382Z,32.53
2018-03-03T09:45:45.948Z,32.07
2018-03-03T09:48:13.545Z,29.07
2018-03-03T09:50:41.148Z,30.07
2018-03-03T09:53:08.733Z,31.27
2018-03-03T09:55:37.048Z,28.33
2018-03-03T09:58:04.670Z,25.40
2018-03-03T10:00:33.062Z,26.37
2018-03-03T10:03:00.651Z,24.67
2018-03-03T10:05:28.206Z,26.57
2018-03-03T10:07:55.826Z,27.10
2018-03-03T10:10:23.430Z,25.23
2018-03-03T10:12:51.054Z,24.70
2018-03-03T10:15:18.658Z,23.90
2018-03-03T10:17:46.224Z,25.47
2018-03-03T10:20:13.821Z,24.17
2018-03-03T10:22:42.199Z,25.67
2018-03-03T10:25:10.545Z,25.77
2018-03-03T10:27:38.172Z,25.10
2018-03-03T10:30:05.859Z,22.57
2018-03-03T10:32:33.627Z,21.57
2018-03-03T10:35:01.245Z,21.77
2018-03-03T10:37:28.860Z,22.73
2018-03-03T10:39:56.414Z,21.50
2018-03-03T10:42:23.949Z,20.73
2018-03-03T10:44:51.624Z,20.83
2018-03-03T10:47:19.246Z,23.47
2018-03-03T10:49:47.670Z,21.63
2018-03-03T10:52:15.233Z,21.33
2018-03-03T10:54:42.817Z,21.30
2018-03-03T10:57:10.623Z,19.93
2018-03-03T10:59:38.976Z,19.67
2018-03-03T11:02:07.331Z,19.33
2018-03-03T11:04:34.862Z,19.33
2018-03-03T11:07:02.443Z,20.07
2018-03-03T11:09:30.001Z,19.17
2018-03-03T11:11:57.594Z,17.53
2018-03-03T11:14:25.172Z,19.87
2018-03-03T11:16:53.044Z,15.70
2018-03-03T11:19:20.576Z,16.33
2018-03-03T11:21:48.160Z,16.50
2018-03-03T11:24:15.960Z,15.93
2018-03-03T11:26:43.480Z,16.77
2018-03-03T11:29:11.813Z,17.03
2018-03-03T11:31:39.376Z,16.77
2018-03-03T11:34:06.951Z,15.53
2018-03-03T11:36:34.487Z,16.93
2018-03-03T11:39:02.066Z,14.73
2018-03-03T11:41:29.661Z,14.60
2018-03-03T11:43:57.232Z,14.70
2018-03-03T11:46:24.769Z,14.20
2018-03-03T11:48:52.326Z,14.03
2018-03-03T11:51:20.575Z,15.23
2018-03-03T11:53:48.208Z,14.70
2018-03-03T11:56:15.741Z,13.97
2018-03-03T11:58:43.614Z,12.90
2018-03-03T12:01:11.190Z,12.40
2018-03-03T12:03:38.802Z,14.10
2018-03-03T12:06:06.361Z,14.83
2018-03-03T12:08:33.934Z,12.57
2018-03-03T12:11:02.265Z,12.07
2018-03-03T12:13:29.844Z,12.27
2018-03-03T12:15:57.435Z,11.83
2018-03-03T12:18:25.273Z,11.93
2018-03-03T12:20:52.857Z,11.40
2018-03-03T12:23:20.473Z,13.03
2018-03-03T12:25:48.084Z,11.93
2018-03-03T12:28:15.681Z,11.90
2018-03-03T12:30:43.297Z,10.20
2018-03-03T12:33:10.867Z,10.70
2018-03-03T12:35:38.459Z,10.80
2018-03-03T12:38:06.754Z,10.97
2018-03-03T12:40:34.337Z,10.97
2018-03-03T12:43:01.926Z,10.90
2018-03-03T12:45:29.472Z,11.90
2018-03-03T12:47:57.099Z,11.17
2018-03-03T12:50:25.048Z,10.90
2018-03-03T12:52:52.683Z,10.97
2018-03-03T12:55:20.220Z,11.87
2018-03-03T12:57:48.956Z,11.23
2018-03-03T13:00:16.537Z,10.70
2018-03-03T13:02:44.064Z,9.90
2018-03-03T13:05:11.661Z,10.13
2018-03-03T13:07:39.258Z,10.93
2018-03-03T13:10:06.823Z,10.00
2018-03-03T13:12:35.152Z,9.93
2018-03-03T13:15:02.748Z,10.37
2018-03-03T13:17:30.285Z,10.03
2018-03-03T13:19:57.929Z,9.87
2018-03-03T13:22:25.523Z,10.33
2018-03-03T13:24:54.060Z,7.70
2018-03-03T13:27:21.620Z,8.53
2018-03-03T13:29:49.204Z,7.97
2018-03-03T13:32:16.784Z,6.93
2018-03-03T13:34:44.322Z,7.73
2018-03-03T13:37:11.907Z,7.63
2018-03-03T13:39:39.430Z,7.80
2018-03-03T13:42:07.160Z,6.90
2018-03-03T13:44:35.463Z,7.37
2018-03-03T13:47:02.993Z,7.07
2018-03-03T13:49:31.325Z,8.33
2018-03-03T13:51:58.933Z,8.10
2018-03-03T13:54:26.498Z,7.80
2018-03-03T13:56:54.041Z,8.87
2018-03-03T13:59:22.422Z,8.90
2018-03-03T14:01:50.727Z,9.17
2018-03-03T14:04:18.316Z,9.20
2018-03-03T14:06:45.917Z,8.90
2018-03-03T14:09:13.478Z,9.03
2018-03-03T14:11:41.849Z,8.50
2018-03-03T14:14:10.201Z,8.37
2018-03-03T14:16:37.866Z,8.70
2018-03-03T14:19:05.415Z,9.47
2018-03-03T14:21:33.647Z,8.60
2018-03-03T14:24:01.306Z,8.40
2018-03-03T14:26:28.940Z,8.20
2018-03-03T14:28:56.503Z,8.90
2018-03-03T14:31:24.834Z,9.17
2018-03-03T14:33:52.471Z,8.57
2018-03-03T14:36:20.013Z,8.17
2018-03-03T14:38:47.574Z,9.00
2018-03-03T14:41:15.897Z,9.77
2018-03-03T14:43:43.940Z,9.27
2018-03-03T14:46:11.519Z,9.03
2018-03-03T14:48:39.082Z,9.63
2018-03-03T14:51:06.640Z,10.10
2018-03-03T14:53:34.262Z,10.57
2018-03-03T14:56:02.563Z,9.97
2018-03-03T14:58:30.121Z,9.73
2018-03-03T15:00:57.699Z,10.97
2018-03-03T15:03:25.241Z,11.33
2018-03-03T15:05:52.797Z,11.47
2018-03-03T15:08:20.376Z,10.77
2018-03-03T15:10:47.937Z,10.40
2018-03-03T15:13:16.269Z,11.20
2018-03-03T15:15:44.604Z,11.50
2018-03-03T15:18:12.185Z,12.63
2018-03-03T15:20:39.762Z,12.70
2018-03-03T15:23:07.308Z,11.93
2018-03-03T15:25:34.906Z,13.87
2018-03-03T15:28:02.453Z,12.87
2018-03-03T15:30:30.019Z,12.43
2018-03-03T15:32:58.325Z,11.87
2018-03-03T15:35:25.895Z,12.60
2018-03-03T15:37:53.508Z,12.17
2018-03-03T15:40:21.094Z,11.87
2018-03-03T15:42:48.655Z,12.90
2018-03-03T15:45:16.190Z,12.93
2018-03-03T15:47:43.790Z,14.13
2018-03-03T15:50:11.345Z,13.63
2018-03-03T15:52:38.926Z,13.30
2018-03-03T15:55:06.481Z,13.63
2018-03-03T15:57:34.090Z,13.33
2018-03-03T16:00:01.688Z,13.23
2018-03-03T16:02:29.249Z,13.30
2018-03-03T16:04:56.828Z,13.90
2018-03-03T16:07:24.376Z,14.30
2018-03-03T16:09:51.930Z,13.70
2018-03-03T16:12:19.564Z,14.93
2018-03-03T16:14:47.930Z,17.27
2018-03-03T16:17:16.298Z,16.23
2018-03-03T16:19:44.628Z,18.30
2018-03-03T16:22:12.210Z,20.03
2018-03-03T16:24:39.776Z,19.23
2018-03-03T16:27:07.366Z,20.03
2018-03-03T16:29:35.753Z,19.37
2018-03-03T16:32:04.102Z,20.77
2018-03-03T16:34:31.695Z,20.20
2018-03-03T16:36:59.256Z,21.40
2018-03-03T16:39:26.811Z,22.33
2018-03-03T16:41:55.254Z,22.80
2018-03-03T16:44:23.740Z,22.20
2018-03-03T16:46:51.370Z,23.97
2018-03-03T16:49:18.909Z,23.70
2018-03-03T16:51:46.595Z,25.23
2018-03-03T16:54:14.193Z,25.87
2018-03-03T16:56:41.788Z,28.27
2018-03-03T16:59:10.125Z,28.73
2018-03-03T17:01:37.675Z,27.83
2018-03-03T17:04:05.228Z,29.37
2018-03-03T17:06:32.785Z,30.00
2018-03-03T17:09:00.399Z,30.23
2018-03-03T17:11:27.988Z,30.07
2018-03-03T17:13:55.567Z,30.97
2018-03-03T17:16:23.198Z,30.73
2018-03-03T17:18:50.783Z,30.17
2018-03-03T17:21:18.339Z,31.57
2018-03-03T17:23:45.940Z,34.53
2018-03-03T17:26:13.928Z,33.37
2018-03-03T17:28:41.527Z,32.67
2018-03-03T17:31:09.163Z,33.97
2018-03-03T17:33:36.729Z,34.37
2018-03-03T17:36:04.297Z,35.63
2018-03-03T17:38:32.753Z,34.73
2018-03-03T17:41:00.302Z,35.23
2018-03-03T17:43:28.653Z,35.50
2018-03-03T17:45:56.201Z,35.33
2018-03-03T17:48:23.781Z,36.23
2018-03-03T17:50:51.409Z,35.30
2018-03-03T17:53:18.948Z,35.63
2018-03-03T17:55:47.205Z,33.03
2018-03-03T17:58:14.749Z,33.50
2018-03-03T18:00:42.322Z,31.67
2018-03-03T18:03:09.844Z,31.33
2018-03-03T18:05:37.441Z,33.40
2018-03-03T18:08:04.986Z,34.63
2018-03-03T18:10:32.550Z,32.23
2018-03-03T18:13:00.254Z,34.47
2018-03-03T18:15:27.796Z,31.67
2018-03-03T18:17:56.257Z,34.30
2018-03-03T18:20:24.189Z,35.50
2018-03-03T18:22:51.787Z,35.37
2018-03-03T18:25:19.493Z,30.23
2018-03-03T18:27:47.055Z,30.03
2018-03-03T18:30:14.573Z,36.10
2018-03-03T18:32:42.132Z,34.67
2018-03-03T18:35:10.485Z,34.03
2018-03-03T18:37:38.021Z,36.20
2018-03-03T18:40:05.565Z,32.57
2018-03-03T18:42:33.126Z,33.37
2018-03-03T18:45:01.057Z,32.47
2018-03-03T18:47:33.633Z,33.57
2018-03-03T18:50:01.964Z,35.67
2018-03-03T18:52:29.588Z,38.13
2018-03-03T18:54:57.143Z,37.20
2018-03-03T18:57:24.804Z,37.13
2018-03-03T18:59:52.381Z,37.60
2018-03-03T19:02:19.973Z,35.00
2018-03-03T19:04:47.513Z,29.57
2018-03-03T19:07:15.099Z,28.27
2018-03-03T19:09:42.654Z,26.40
2018-03-03T19:12:10.213Z,31.47
2018-03-03T19:14:37.782Z,32.97
2018-03-03T19:17:05.356Z,35.20
2018-03-03T19:19:32.929Z,38.30
2018-03-03T19:22:01.367Z,39.57
2018-03-03T19:24:28.911Z,39.50
2018-03-03T19:26:56.491Z,40.73
2018-03-03T19:29:24.036Z,40.63
2018-03-03T19:31:51.617Z,38.37
2018-03-03T19:34:19.202Z,41.90
2018-03-03T19:36:46.755Z,38.63
2018-03-03T19:39:15.333Z,39.20
2018-03-03T19:41:43.000Z,39.03
2018-03-03T19:44:10.654Z,41.47
2018-03-03T19:46:38.239Z,39.87
2018-03-03T19:49:05.837Z,40.17
2018-03-03T19:51:33.442Z,40.30
2018-03-03T19:54:01.046Z,39.27
2018-03-03T19:56:28.610Z,41.73
2018-03-03T19:58:56.211Z,38.70
2018-03-03T20:01:23.794Z,42.37
2018-03-03T20:03:51.404Z,41.43
2018-03-03T20:06:19.005Z,42.17
2018-03-03T20:08:46.601Z,43.47
2018-03-03T20:11:14.143Z,43.07
2018-03-03T20:13:41.720Z,43.50
2018-03-03T20:16:09.514Z,45.17
2018-03-03T20:18:37.082Z,47.93
2018-03-03T20:21:04.657Z,46.27
2018-03-03T20:23:32.215Z,48.30
2018-03-03T20:25:59.776Z,46.37
2018-03-03T20:28:27.332Z,47.40
2018-03-03T20:30:54.870Z,47.13
2018-03-03T20:33:22.595Z,50.20
2018-03-03T20:35:50.917Z,49.00
2018-03-03T20:38:18.500Z,47.57
2018-03-03T20:40:46.075Z,49.23
2018-03-03T20:43:13.664Z,50.60
2018-03-03T20:45:41.219Z,50.80
2018-03-03T20:48:08.774Z,49.03
2018-03-03T20:50:36.370Z,50.93
2018-03-03T20:53:04.136Z,52.47
2018-03-03T20:55:31.707Z,50.63
2018-03-03T20:57:59.262Z,51.97
2018-03-03T21:00:26.832Z,51.33
2018-03-03T21:02:54.413Z,52.33
2018-03-03T21:05:22.070Z,49.97
2018-03-03T21:07:49.643Z,51.47
2018-03-03T21:10:17.260Z,49.90
2018-03-03T21:12:47.386Z,51.80
2018-03-03T21:15:14.953Z,52.77
2018-03-03T21:17:42.529Z,51.60
2018-03-03T21:20:10.125Z,53.17
2018-03-03T21:22:38.438Z,53.70
2018-03-03T21:25:06.008Z,51.83
2018-03-03T21:27:33.568Z,53.07
2018-03-03T21:30:01.149Z,52.70
2018-03-03T21:32:28.735Z,52.87
2018-03-03T21:34:56.301Z,53.33
2018-03-03T21:37:23.882Z,53.97
2018-03-03T21:39:51.460Z,51.37
2018-03-03T21:42:19.017Z,52.00
2018-03-03T21:44:46.578Z,52.67
2018-03-03T21:47:14.155Z,53.23
2018-03-03T21:49:41.736Z,53.13
2018-03-03T21:52:09.309Z,52.23
2018-03-03T21:54:36.836Z,51.50
2018-03-03T21:57:04.374Z,50.70
2018-03-03T21:59:32.193Z,53.37
2018-03-03T22:01:59.745Z,54.40
2018-03-03T22:04:27.331Z,51.47
2018-03-03T22:06:54.909Z,51.97
2018-03-03T22:09:23.205Z,53.20
2018-03-03T22:11:50.755Z,50.73
2018-03-03T22:14:18.374Z,51.53
2018-03-03T22:16:45.985Z,52.77
2018-03-03T22:19:13.512Z,50.67
2018-03-03T22:21:41.089Z,52.80
2018-03-03T22:24:08.627Z,48.97
2018-03-03T22:26:37.413Z,50.77
2018-03-03T22:29:04.950Z,52.53
2018-03-03T22:31:32.570Z,51.10
2018-03-03T22:34:00.234Z,52.50
2018-03-03T22:36:27.803Z,50.60
2018-03-03T22:38:55.437Z,50.87
2018-03-03T22:41:22.973Z,51.67
2018-03-03T22:43:51.328Z,52.50
2018-03-03T22:46:18.873Z,52.13
2018-03-03T22:48:46.470Z,51.53
2018-03-03T22:51:14.051Z,51.00
2018-03-03T22:53:42.001Z,53.20
2018-03-03T22:56:09.612Z,51.40
2018-03-03T22:58:37.163Z,51.57
2018-03-03T23:01:04.733Z,53.13
2018-03-03T23:03:32.308Z,50.87
2018-03-03T23:06:00.104Z,50.17
2018-03-03T23:08:27.610Z,48.80
2018-03-03T23:10:55.145Z,49.63
2018-03-03T23:13:22.731Z,51.77
2018-03-03T23:15:50.329Z,51.53
2018-03-03T23:18:17.865Z,49.43
2018-03-03T23:20:45.433Z,44.57
2018-03-03T23:23:12.973Z,50.07
2018-03-03T23:25:40.641Z,49.47
2018-03-03T23:28:08.246Z,51.93
2018-03-03T23:30:35.806Z,46.53
2018-03-03T23:33:04.143Z,50.63
2018-03-03T23:35:31.816Z,48.63
2018-03-03T23:38:00.138Z,47.50
2018-03-03T23:40:27.733Z,46.83
2018-03-03T23:42:55.303Z,47.87
2018-03-03T23:45:22.861Z,48.37
2018-03-03T23:47:50.430Z,52.37
2018-03-03T23:50:18.083Z,49.30
2018-03-03T23:52:45.637Z,51.23
2018-03-03T23:55:13.186Z,48.63
2018-03-03T23:57:40.833Z,51.13
